Time,TemperatureF,DewpointF,PressureIn,WindDirection,WindDirectionDegrees,WindSpeedMPH,WindSpeedGustMPH,Humidity,HourlyPrecipIn,Conditions,Clouds,dailyrainin,SoftwareType,DateUTC
2013-05-27 00:15:00,68.4,-35.8,29.77,WSW,247,0.0,-999.0,1,-99.99,,,0.00,Acu-Link.com,2013-05-27 06:15:00,
2013-05-27 00:30:00,67.8,-36.1,29.76,South,180,0.0,-999.0,1,-99.99,,,0.00,Acu-Link.com,2013-05-27 06:30:00,
2013-05-27 00:45:00,66.6,-36.9,29.78,SE,135,0.0,-999.0,1,-99.99,,,0.00,Acu-Link.com,2013-05-27 06:45:00,
2013-05-27 01:00:00,65.7,-37.4,29.77,SSE,157,0.0,-999.0,1,-99.99,,,0.00,Acu-Link.com,2013-05-27 07:00:00,
2013-05-27 01:16:00,64.9,-37.9,29.77,ESE,112,0.0,-999.0,1,-99.99,,,0.00,Acu-Link.com,2013-05-27 07:16:00,
2013-05-27 01:31:00,64.9,-37.9,29.79,East,90,0.0,-999.0,1,-99.99,,,0.00,Acu-Link.com,2013-05-27 07:31:00,
2013-05-27 01:47:00,63.7,-38.6,29.78,SE,135,0.0,-999.0,1,-99.99,,,0.00,Acu-Link.com,2013-05-27 07:47:00,
2013-05-27 02:02:00,62.6,12.8,29.77,South,180,0.0,-999.0,14,-99.99,,,0.00,Acu-Link.com,2013-05-27 08:02:00,
2013-05-27 02:17:00,62.4,15.6,29.76,East,90,0.0,-999.0,16,-99.99,,,0.00,Acu-Link.com,2013-05-27 08:17:00,
2013-05-27 02:32:00,61.9,16.6,29.77,SSW,202,0.0,-999.0,17,-99.99,,,0.00,Acu-Link.com,2013-05-27 08:32:00,
2013-05-27 02:47:00,60.1,18.9,29.77,SE,135,0.0,-999.0,20,-99.99,,,0.00,Acu-Link.com,2013-05-27 08:47:00,
2013-05-27 03:03:00,58.3,18.6,29.79,ENE,67,0.0,-999.0,21,-99.99,,,0.00,Acu-Link.com,2013-05-27 09:03:00,
2013-05-27 03:18:00,57.2,18.7,29.78,South,180,0.0,-999.0,22,-99.99,,,0.00,Acu-Link.com,2013-05-27 09:18:00,
2013-05-27 03:33:00,56.3,16.9,29.77,ENE,67,0.0,-999.0,21,-99.99,,,0.00,Acu-Link.com,2013-05-27 09:33:00,
2013-05-27 03:48:00,55.2,17.0,29.78,SSE,157,0.0,-999.0,22,-99.99,,,0.00,Acu-Link.com,2013-05-27 09:48:00,
2013-05-27 04:03:00,54.3,18.3,29.78,ESE,112,0.0,-999.0,24,-99.99,,,0.00,Acu-Link.com,2013-05-27 10:03:00,
2013-05-27 04:19:00,54.7,17.6,29.80,SSE,157,0.0,-999.0,23,-99.99,,,0.00,Acu-Link.com,2013-05-27 10:19:00,
2013-05-27 04:34:00,54.0,18.0,29.79,South,180,0.0,-999.0,24,-99.99,,,0.00,Acu-Link.com,2013-05-27 10:34:00,
2013-05-27 04:49:00,54.3,18.3,29.78,SSE,157,0.0,-999.0,24,-99.99,,,0.00,Acu-Link.com,2013-05-27 10:49:00,
2013-05-27 05:04:00,54.3,19.2,29.78,SW,225,0.0,-999.0,25,-99.99,,,0.00,Acu-Link.com,2013-05-27 11:04:00,
2013-05-27 05:19:00,55.0,21.6,29.80,East,90,0.0,-999.0,27,-99.99,,,0.00,Acu-Link.com,2013-05-27 11:19:00,
2013-05-27 05:34:00,55.6,19.4,29.80,West,270,0.0,-999.0,24,-99.99,,,0.00,Acu-Link.com,2013-05-27 11:34:00,
2013-05-27 05:50:00,55.6,21.3,29.81,East,90,0.0,-999.0,26,-99.99,,,0.00,Acu-Link.com,2013-05-27 11:50:00,
2013-05-27 06:05:00,56.5,22.0,29.80,ESE,112,0.0,-999.0,26,-99.99,,,0.00,Acu-Link.com,2013-05-27 12:05:00,
2013-05-27 06:20:00,56.7,22.2,29.81,SW,225,0.0,-999.0,26,-99.99,,,0.00,Acu-Link.com,2013-05-27 12:20:00,
2013-05-27 06:35:00,59.0,23.2,29.81,South,180,0.0,-999.0,25,-99.99,,,0.00,Acu-Link.com,2013-05-27 12:35:00,
2013-05-27 06:51:00,60.3,31.1,29.81,ESE,112,0.0,-999.0,33,-99.99,,,0.00,Acu-Link.com,2013-05-27 12:51:00,
2013-05-27 07:06:00,59.7,29.8,29.81,ENE,67,0.0,-999.0,32,-99.99,,,0.00,Acu-Link.com,2013-05-27 13:06:00,
2013-05-27 07:21:00,59.7,30.6,29.82,SSE,157,0.0,-999.0,33,-99.99,,,0.00,Acu-Link.com,2013-05-27 13:21:00,
2013-05-27 07:37:00,60.4,31.2,29.81,ESE,112,0.0,-999.0,33,-99.99,,,0.00,Acu-Link.com,2013-05-27 13:37:00,
2013-05-27 07:52:00,61.7,31.5,29.81,SE,135,0.0,-999.0,32,-99.99,,,0.00,Acu-Link.com,2013-05-27 13:52:00,
2013-05-27 08:07:00,63.3,32.9,29.82,ENE,67,0.0,-999.0,32,-99.99,,,0.00,Acu-Link.com,2013-05-27 14:07:00,
2013-05-27 08:23:00,65.5,33.2,29.82,SE,135,0.0,-999.0,30,-99.99,,,0.00,Acu-Link.com,2013-05-27 14:23:00,
2013-05-27 08:38:00,66.6,31.6,29.82,SSE,157,0.0,-999.0,27,-99.99,,,0.00,Acu-Link.com,2013-05-27 14:38:00,
2013-05-27 08:53:00,67.6,25.1,29.84,SSW,202,0.0,-999.0,20,-99.99,,,0.00,Acu-Link.com,2013-05-27 14:53:00,
2013-05-27 09:08:00,69.6,25.5,29.82,ESE,112,0.0,-999.0,19,-99.99,,,0.00,Acu-Link.com,2013-05-27 15:08:00,
2013-05-27 09:24:00,70.7,22.3,29.82,North,0,0.0,-999.0,16,-99.99,,,0.00,Acu-Link.com,2013-05-27 15:24:00,
2013-05-27 09:39:00,72.9,-33.1,29.83,ENE,67,1.1,-999.0,1,-99.99,,,0.00,Acu-Link.com,2013-05-27 15:39:00,
2013-05-27 09:54:00,77.4,-30.4,29.81,WNW,292,0.0,-999.0,1,-99.99,,,0.00,Acu-Link.com,2013-05-27 15:54:00,
2013-05-27 10:09:00,79.2,-29.3,29.80,NE,45,0.0,-999.0,1,-99.99,,,0.00,Acu-Link.com,2013-05-27 16:09:00,
2013-05-27 10:25:00,79.0,-29.4,29.81,NE,45,0.0,-999.0,1,-99.99,,,0.00,Acu-Link.com,2013-05-27 16:25:00,
2013-05-27 10:40:00,80.8,-28.4,29.79,North,0,1.7,-999.0,1,-99.99,,,0.00,Acu-Link.com,2013-05-27 16:40:00,
2013-05-27 10:55:00,82.0,-27.7,29.78,NE,45,1.7,-999.0,1,-99.99,,,0.00,Acu-Link.com,2013-05-27 16:55:00,
2013-05-27 11:10:00,82.6,-27.3,29.78,SSW,202,2.7,-999.0,1,-99.99,,,0.00,Acu-Link.com,2013-05-27 17:10:00,
2013-05-27 11:26:00,82.6,-27.3,29.78,ENE,67,0.0,-999.0,1,-99.99,,,0.00,Acu-Link.com,2013-05-27 17:26:00,
2013-05-27 11:41:00,85.6,-25.5,29.78,East,90,1.7,-999.0,1,-99.99,,,0.00,Acu-Link.com,2013-05-27 17:41:00,
2013-05-27 11:56:00,85.5,-25.6,29.78,NNW,337,0.0,-999.0,1,-99.99,,,0.00,Acu-Link.com,2013-05-27 17:56:00,
2013-05-27 12:12:00,84.4,-26.2,29.77,SSW,202,2.2,-999.0,1,-99.99,,,0.00,Acu-Link.com,2013-05-27 18:12:00,
2013-05-27 12:27:00,84.9,-25.9,29.75,South,180,3.7,-999.0,1,-99.99,,,0.00,Acu-Link.com,2013-05-27 18:27:00,
2013-05-27 12:42:00,85.8,-25.4,29.75,South,180,1.7,-999.0,1,-99.99,,,0.00,Acu-Link.com,2013-05-27 18:42:00,
2013-05-27 12:58:00,86.5,-25.0,29.74,SW,225,2.7,-999.0,1,-99.99,,,0.00,Acu-Link.com,2013-05-27 18:58:00,
2013-05-27 13:13:00,86.4,-25.0,29.74,NE,45,1.1,-999.0,1,-99.99,,,0.00,Acu-Link.com,2013-05-27 19:13:00,
2013-05-27 13:28:00,86.7,-24.9,29.74,West,270,2.2,-999.0,1,-99.99,,,0.00,Acu-Link.com,2013-05-27 19:28:00,
2013-05-27 13:43:00,89.1,-23.5,29.73,South,180,1.1,-999.0,1,-99.99,,,0.00,Acu-Link.com,2013-05-27 19:43:00,
2013-05-27 13:59:00,90.3,-22.7,29.70,ESE,112,0.0,-999.0,1,-99.99,,,0.00,Acu-Link.com,2013-05-27 19:59:00,
2013-05-27 14:14:00,92.5,-21.4,29.70,WNW,292,1.7,-999.0,1,-99.99,,,0.00,Acu-Link.com,2013-05-27 20:14:00,
2013-05-27 14:29:00,89.1,-23.5,29.71,North,0,2.2,-999.0,1,-99.99,,,0.00,Acu-Link.com,2013-05-27 20:29:00,
2013-05-27 14:44:00,92.3,-21.6,29.70,SW,225,3.7,-999.0,1,-99.99,,,0.00,Acu-Link.com,2013-05-27 20:44:00,
2013-05-27 14:59:00,90.0,-22.9,29.67,SE,135,2.2,-999.0,1,-99.99,,,0.00,Acu-Link.com,2013-05-27 20:59:00,
2013-05-27 15:15:00,93.2,-21.0,29.66,SSE,157,6.8,-999.0,1,-99.99,,,0.00,Acu-Link.com,2013-05-27 21:15:00,
2013-05-27 15:30:00,93.2,-21.0,29.67,NNE,22,3.2,-999.0,1,-99.99,,,0.00,Acu-Link.com,2013-05-27 21:30:00,
2013-05-27 15:45:00,92.3,-21.6,29.65,NE,45,3.2,-999.0,1,-99.99,,,0.00,Acu-Link.com,2013-05-27 21:45:00,
2013-05-27 16:00:00,92.1,-21.7,29.65,SW,225,5.8,-999.0,1,-99.99,,,0.00,Acu-Link.com,2013-05-27 22:00:00,
2013-05-27 16:15:00,92.1,-21.7,29.64,NNE,22,3.2,-999.0,1,-99.99,,,0.00,Acu-Link.com,2013-05-27 22:15:00,
2013-05-27 16:31:00,89.2,-23.4,29.63,SSW,202,4.7,-999.0,1,-99.99,,,0.00,Acu-Link.com,2013-05-27 22:31:00,
2013-05-27 16:46:00,88.5,-23.8,29.64,NE,45,1.1,-999.0,1,-99.99,,,0.00,Acu-Link.com,2013-05-27 22:46:00,
2013-05-27 17:01:00,89.4,-23.3,29.63,South,180,3.2,-999.0,1,-99.99,,,0.00,Acu-Link.com,2013-05-27 23:01:00,
2013-05-27 17:16:00,91.6,-22.0,29.62,NE,45,2.7,-999.0,1,-99.99,,,0.00,Acu-Link.com,2013-05-27 23:16:00,
2013-05-27 17:31:00,91.8,-21.9,29.62,ESE,112,0.0,-999.0,1,-99.99,,,0.00,Acu-Link.com,2013-05-27 23:31:00,
2013-05-27 17:47:00,90.9,-22.4,29.61,WSW,247,4.2,-999.0,1,-99.99,,,0.00,Acu-Link.com,2013-05-27 23:47:00,
2013-05-27 18:02:00,88.7,-23.7,29.61,ESE,112,4.2,-999.0,1,-99.99,,,0.00,Acu-Link.com,2013-05-28 00:02:00,
2013-05-27 18:17:00,87.8,-24.2,29.60,SW,225,4.7,-999.0,1,-99.99,,,0.00,Acu-Link.com,2013-05-28 00:17:00,
2013-05-27 18:33:00,88.2,-24.0,29.60,NE,45,3.2,-999.0,1,-99.99,,,0.00,Acu-Link.com,2013-05-28 00:33:00,
2013-05-27 18:48:00,86.7,-24.9,29.61,SW,225,2.7,-999.0,1,-99.99,,,0.00,Acu-Link.com,2013-05-28 00:48:00,
2013-05-27 19:03:00,85.8,-25.4,29.61,WSW,247,3.7,-999.0,1,-99.99,,,0.00,Acu-Link.com,2013-05-28 01:03:00,
2013-05-27 19:18:00,83.1,-27.0,29.60,South,180,1.7,-999.0,1,-99.99,,,0.00,Acu-Link.com,2013-05-28 01:18:00,
2013-05-27 19:33:00,81.0,-28.2,29.62,ENE,67,3.7,-999.0,1,-99.99,,,0.00,Acu-Link.com,2013-05-28 01:33:00,
2013-05-27 19:48:00,79.5,-29.1,29.61,West,270,3.2,-999.0,1,-99.99,,,0.00,Acu-Link.com,2013-05-28 01:48:00,
2013-05-27 20:04:00,78.4,-29.8,29.61,SW,225,2.2,-999.0,1,-99.99,,,0.00,Acu-Link.com,2013-05-28 02:04:00,
2013-05-27 20:19:00,77.4,-30.4,29.60,ENE,67,1.7,-999.0,1,-99.99,,,0.00,Acu-Link.com,2013-05-28 02:19:00,
2013-05-27 20:34:00,76.6,-30.9,29.59,SSW,202,1.1,-999.0,1,-99.99,,,0.00,Acu-Link.com,2013-05-28 02:34:00,
2013-05-27 20:49:00,75.7,-31.4,29.59,ESE,112,0.0,-999.0,1,-99.99,,,0.00,Acu-Link.com,2013-05-28 02:49:00,
2013-05-27 21:05:00,74.8,-5.3,29.60,SW,225,1.1,-999.0,4,-99.99,,,0.00,Acu-Link.com,2013-05-28 03:05:00,
2013-05-27 21:20:00,74.5,23.8,29.59,ESE,112,0.0,-999.0,15,-99.99,,,0.00,Acu-Link.com,2013-05-28 03:20:00,
2013-05-27 21:35:00,74.1,25.0,29.60,WSW,247,0.0,-999.0,16,-99.99,,,0.00,Acu-Link.com,2013-05-28 03:35:00,
2013-05-27 21:51:00,73.2,22.8,29.60,NE,45,0.0,-999.0,15,-99.99,,,0.00,Acu-Link.com,2013-05-28 03:51:00,
2013-05-27 22:06:00,72.1,24.9,29.61,West,270,0.0,-999.0,17,-99.99,,,0.00,Acu-Link.com,2013-05-28 04:06:00,
2013-05-27 22:21:00,71.4,27.0,29.61,SE,135,0.0,-999.0,19,-99.99,,,0.00,Acu-Link.com,2013-05-28 04:21:00,
2013-05-27 22:37:00,70.3,27.3,29.62,ESE,112,0.0,-999.0,20,-99.99,,,0.00,Acu-Link.com,2013-05-28 04:37:00,
2013-05-27 22:52:00,71.4,24.3,29.62,NE,45,1.7,-999.0,17,-99.99,,,0.00,Acu-Link.com,2013-05-28 04:52:00,
2013-05-27 23:07:00,71.4,24.3,29.63,ESE,112,0.0,-999.0,17,-99.99,,,0.00,Acu-Link.com,2013-05-28 05:07:00,
2013-05-27 23:23:00,70.0,24.6,29.64,WSW,247,2.2,-999.0,18,-99.99,,,0.00,Acu-Link.com,2013-05-28 05:23:00,
2013-05-27 23:38:00,70.0,23.2,29.64,East,90,0.0,-999.0,17,-99.99,,,0.00,Acu-Link.com,2013-05-28 05:38:00,
2013-05-27 23:53:00,69.4,22.7,29.65,South,180,0.0,-999.0,17,-99.99,,,0.00,Acu-Link.com,2013-05-28 05:53:00,